sensor_id;sensor_type;location;lat;lon;timestamp;pressure;altitude;pressure_sealevel;temperature;humidity
77871;BME280;67067;46.850;7.578;2024-02-26T00:00:35;93477.22;;;4.60;45.64
77871;BME280;67067;46.850;7.578;2024-02-26T00:01:39;93483.03;;;4.67;45.63
77871;BME280;67067;46.850;7.578;2024-02-26T00:02:41;93472.28;;;4.64;45.54
77871;BME280;67067;46.850;7.578;2024-02-26T00:03:43;93472.81;;;4.66;45.65
77871;BME280;67067;46.850;7.578;2024-02-26T00:04:47;93474.13;;;4.68;45.64
77871;BME280;67067;46.850;7.578;2024-02-26T00:05:51;93475.44;;;4.66;45.51
77871;BME280;67067;46.850;7.578;2024-02-26T00:06:53;93474.91;;;4.64;45.59
77871;BME280;67067;46.850;7.578;2024-02-26T00:07:56;93465.47;;;4.63;45.68
77871;BME280;67067;46.850;7.578;2024-02-26T00:09:05;93465.97;;;4.60;45.76
77871;BME280;67067;46.850;7.578;2024-02-26T00:10:12;93462.03;;;4.62;46.03
77871;BME280;67067;46.850;7.578;2024-02-26T00:11:14;93455.22;;;4.61;46.03
77871;BME280;67067;46.850;7.578;2024-02-26T00:12:15;93455.19;;;4.51;46.26
77871;BME280;67067;46.850;7.578;2024-02-26T00:13:20;93459.41;;;4.62;46.08
77871;BME280;67067;46.850;7.578;2024-02-26T00:14:26;93452.38;;;4.63;45.66
77871;BME280;67067;46.850;7.578;2024-02-26T00:15:28;93452.88;;;4.54;46.06
77871;BME280;67067;46.850;7.578;2024-02-26T00:16:30;93453.13;;;4.58;46.18
77871;BME280;67067;46.850;7.578;2024-02-26T00:17:32;93448.91;;;4.52;46.04
77871;BME280;67067;46.850;7.578;2024-02-26T00:18:36;93443.97;;;4.61;45.82
77871;BME280;67067;46.850;7.578;2024-02-26T00:19:38;93444.50;;;4.63;46.01
77871;BME280;67067;46.850;7.578;2024-02-26T00:20:40;93440.03;;;4.63;45.63
77871;BME280;67067;46.850;7.578;2024-02-26T00:21:44;93433.22;;;4.62;45.78
77871;BME280;67067;46.850;7.578;2024-02-26T00:22:46;93434.78;;;4.63;45.55
77871;BME280;67067;46.850;7.578;2024-02-26T00:23:49;93435.84;;;4.67;45.50
77871;BME280;67067;46.850;7.578;2024-02-26T00:24:51;93425.66;;;4.71;45.41
77871;BME280;67067;46.850;7.578;2024-02-26T00:25:55;93431.66;;;4.71;45.34
77871;BME280;67067;46.850;7.578;2024-02-26T00:26:59;93432.47;;;4.77;45.21
77871;BME280;67067;46.850;7.578;2024-02-26T00:28:01;93425.66;;;4.81;45.17
77871;BME280;67067;46.850;7.578;2024-02-26T00:29:05;93418.63;;;4.87;45.03
77871;BME280;67067;46.850;7.578;2024-02-26T00:30:08;93423.06;;;4.86;45.00
77871;BME280;67067;46.850;7.578;2024-02-26T00:31:10;93422.81;;;4.88;44.59
77871;BME280;67067;46.850;7.578;2024-02-26T00:32:12;93416.00;;;4.92;44.63
77871;BME280;67067;46.850;7.578;2024-02-26T00:33:16;93416.00;;;4.82;44.84
77871;BME280;67067;46.850;7.578;2024-02-26T00:34:18;93417.31;;;4.95;44.44
77871;BME280;67067;46.850;7.578;2024-02-26T00:35:21;93421.78;;;4.99;44.29
77871;BME280;67067;46.850;7.578;2024-02-26T00:36:25;93416.53;;;4.99;44.47
77871;BME280;67067;46.850;7.578;2024-02-26T00:37:26;93408.13;;;4.92;44.30
77871;BME280;67067;46.850;7.578;2024-02-26T00:38:28;93411.53;;;5.03;44.11
77871;BME280;67067;46.850;7.578;2024-02-26T00:39:30;93405.53;;;5.03;44.26
77871;BME280;67067;46.850;7.578;2024-02-26T00:40:32;93414.97;;;5.04;44.60
77871;BME280;67067;46.850;7.578;2024-02-26T00:41:38;93416.78;;;5.03;44.81
77871;BME280;67067;46.850;7.578;2024-02-26T00:42:42;93419.16;;;5.05;44.90
77871;BME280;67067;46.850;7.578;2024-02-26T00:43:50;93425.47;;;5.09;45.28
77871;BME280;67067;46.850;7.578;2024-02-26T00:44:51;93423.88;;;5.08;45.50
77871;BME280;67067;46.850;7.578;2024-02-26T00:45:53;93424.41;;;5.05;46.01
77871;BME280;67067;46.850;7.578;2024-02-26T00:46:55;93421.78;;;4.89;46.28
77871;BME280;67067;46.850;7.578;2024-02-26T00:47:59;93425.97;;;5.00;46.21
77871;BME280;67067;46.850;7.578;2024-02-26T00:49:06;93423.88;;;4.97;46.59
77871;BME280;67067;46.850;7.578;2024-02-26T00:50:08;93418.88;;;4.96;46.67
77871;BME280;67067;46.850;7.578;2024-02-26T00:51:10;93416.53;;;4.94;46.33
77871;BME280;67067;46.850;7.578;2024-02-26T00:52:12;93417.84;;;4.97;46.61
77871;BME280;67067;46.850;7.578;2024-02-26T00:53:13;93429.63;;;4.84;46.61
77871;BME280;67067;46.850;7.578;2024-02-26T00:54:15;93434.09;;;4.94;46.41
77871;BME280;67067;46.850;7.578;2024-02-26T00:55:17;93425.16;;;4.95;46.50
77871;BME280;67067;46.850;7.578;2024-02-26T00:56:18;93422.81;;;4.83;46.91
77871;BME280;67067;46.850;7.578;2024-02-26T00:57:20;93407.88;;;4.94;46.63
77871;BME280;67067;46.850;7.578;2024-02-26T00:58:22;93412.06;;;5.00;46.69
77871;BME280;67067;46.850;7.578;2024-02-26T00:59:24;93407.34;;;4.86;46.70
77871;BME280;67067;46.850;7.578;2024-02-26T01:00:26;93395.81;;;4.93;46.62
77871;BME280;67067;46.850;7.578;2024-02-26T01:01:27;93388.47;;;4.95;46.62
77871;BME280;67067;46.850;7.578;2024-02-26T01:02:29;93390.03;;;4.96;46.89
77871;BME280;67067;46.850;7.578;2024-02-26T01:03:31;93386.63;;;4.85;46.49
77871;BME280;67067;46.850;7.578;2024-02-26T01:04:33;93392.41;;;4.87;46.42
77871;BME280;67067;46.850;7.578;2024-02-26T01:05:35;93396.31;;;4.90;46.75
77871;BME280;67067;46.850;7.578;2024-02-26T01:06:37;93393.69;;;4.84;46.69
77871;BME280;67067;46.850;7.578;2024-02-26T01:07:42;93392.94;;;4.84;46.81
77871;BME280;67067;46.850;7.578;2024-02-26T01:08:44;93391.34;;;4.83;47.07
77871;BME280;67067;46.850;7.578;2024-02-26T01:09:45;93391.56;;;4.66;47.21
77871;BME280;67067;46.850;7.578;2024-02-26T01:10:47;93392.38;;;4.77;46.87
77871;BME280;67067;46.850;7.578;2024-02-26T01:11:49;93398.69;;;4.81;47.14
77871;BME280;67067;46.850;7.578;2024-02-26T01:12:51;93396.53;;;4.67;47.20
77871;BME280;67067;46.850;7.578;2024-02-26T01:13:52;93401.28;;;4.76;47.12
77871;BME280;67067;46.850;7.578;2024-02-26T01:14:58;93395.03;;;4.82;47.11
77871;BME280;67067;46.850;7.578;2024-02-26T01:16:00;93391.88;;;4.80;46.83
77871;BME280;67067;46.850;7.578;2024-02-26T01:17:05;93390.28;;;4.79;46.96
77871;BME280;67067;46.850;7.578;2024-02-26T01:18:08;93392.38;;;4.77;46.87
77871;BME280;67067;46.850;7.578;2024-02-26T01:19:10;93406.03;;;4.79;46.73
77871;BME280;67067;46.850;7.578;2024-02-26T01:20:12;93392.13;;;4.78;46.43
77871;BME280;67067;46.850;7.578;2024-02-26T01:21:14;93394.19;;;4.61;46.63
77871;BME280;67067;46.850;7.578;2024-02-26T01:22:16;93398.63;;;4.65;46.88
77871;BME280;67067;46.850;7.578;2024-02-26T01:23:17;93403.31;;;4.48;46.93
77871;BME280;67067;46.850;7.578;2024-02-26T01:24:19;93394.94;;;4.61;46.56
77871;BME280;67067;46.850;7.578;2024-02-26T01:25:23;93401.78;;;4.67;46.57
77871;BME280;67067;46.850;7.578;2024-02-26T01:26:25;93395.97;;;4.55;46.96
77871;BME280;67067;46.850;7.578;2024-02-26T01:27:26;93403.09;;;4.70;46.54
77871;BME280;67067;46.850;7.578;2024-02-26T01:28:28;93401.78;;;4.72;46.41
77871;BME280;67067;46.850;7.578;2024-02-26T01:29:30;93397.03;;;4.59;46.72
77871;BME280;67067;46.850;7.578;2024-02-26T01:30:34;93400.72;;;4.63;46.86
77871;BME280;67067;46.850;7.578;2024-02-26T01:31:36;93414.06;;;4.51;47.34
77871;BME280;67067;46.850;7.578;2024-02-26T01:32:37;93409.09;;;4.60;47.16
77871;BME280;67067;46.850;7.578;2024-02-26T01:33:39;93401.75;;;4.62;46.92
77871;BME280;67067;46.850;7.578;2024-02-26T01:34:42;93408.59;;;4.63;47.21
77871;BME280;67067;46.850;7.578;2024-02-26T01:35:43;93398.91;;;4.64;47.02
77871;BME280;67067;46.850;7.578;2024-02-26T01:36:47;93403.84;;;4.60;47.32
77871;BME280;67067;46.850;7.578;2024-02-26T01:37:49;93404.66;;;4.61;47.42
77871;BME280;67067;46.850;7.578;2024-02-26T01:38:51;93402.25;;;4.49;47.70
77871;BME280;67067;46.850;7.578;2024-02-26T01:39:54;93405.44;;;4.61;47.45
77871;BME280;67067;46.850;7.578;2024-02-26T01:40:55;93401.00;;;4.62;47.22
77871;BME280;67067;46.850;7.578;2024-02-26T01:41:57;93409.63;;;4.62;47.60
77871;BME280;67067;46.850;7.578;2024-02-26T01:42:59;93406.25;;;4.62;47.59
77871;BME280;67067;46.850;7.578;2024-02-26T01:44:02;93419.59;;;4.60;47.37
77871;BME280;67067;46.850;7.578;2024-02-26T01:45:04;93415.34;;;4.43;47.82
77871;BME280;67067;46.850;7.578;2024-02-26T01:46:11;93416.69;;;4.51;47.31
77871;BME280;67067;46.850;7.578;2024-02-26T01:47:15;93419.56;;;4.50;47.51
77871;BME280;67067;46.850;7.578;2024-02-26T01:48:19;93412.50;;;4.50;47.41
77871;BME280;67067;46.850;7.578;2024-02-26T01:49:21;93413.03;;;4.52;47.65
77871;BME280;67067;46.850;7.578;2024-02-26T01:50:23;93408.31;;;4.49;47.50
77871;BME280;67067;46.850;7.578;2024-02-26T01:51:26;93403.56;;;4.46;47.84
77871;BME280;67067;46.850;7.578;2024-02-26T01:52:28;93412.75;;;4.49;47.86
77871;BME280;67067;46.850;7.578;2024-02-26T01:53:30;93405.94;;;4.48;47.65
77871;BME280;67067;46.850;7.578;2024-02-26T01:54:36;93409.06;;;4.50;47.90
77871;BME280;67067;46.850;7.578;2024-02-26T01:55:41;93408.53;;;4.48;47.63
77871;BME280;67067;46.850;7.578;2024-02-26T01:56:45;93409.56;;;4.41;47.93
77871;BME280;67067;46.850;7.578;2024-02-26T01:57:49;93410.09;;;4.43;48.17
77871;BME280;67067;46.850;7.578;2024-02-26T01:58:53;93415.56;;;4.37;48.08
77871;BME280;67067;46.850;7.578;2024-02-26T01:59:55;93414.78;;;4.36;48.21
77871;BME280;67067;46.850;7.578;2024-02-26T02:12:48;93412.75;;;4.59;48.95
77871;BME280;67067;46.850;7.578;2024-02-26T02:13:51;93418.00;;;4.59;48.74
77871;BME280;67067;46.850;7.578;2024-02-26T02:14:53;93415.66;;;4.57;48.98
77871;BME280;67067;46.850;7.578;2024-02-26T02:15:55;93423.75;;;4.56;49.10
77871;BME280;67067;46.850;7.578;2024-02-26T02:16:56;93420.06;;;4.47;49.06
77871;BME280;67067;46.850;7.578;2024-02-26T02:17:58;93423.75;;;4.56;48.93
77871;BME280;67067;46.850;7.578;2024-02-26T02:19:00;93420.91;;;4.57;48.79
77871;BME280;67067;46.850;7.578;2024-02-26T02:20:02;93415.66;;;4.57;48.48
77871;BME280;67067;46.850;7.578;2024-02-26T02:21:05;93409.34;;;4.53;48.70
77871;BME280;67067;46.850;7.578;2024-02-26T02:22:07;93410.38;;;4.47;48.72
77871;BME280;67067;46.850;7.578;2024-02-26T02:23:09;93407.50;;;4.49;48.87
77871;BME280;67067;46.850;7.578;2024-02-26T02:24:10;93408.25;;;4.39;48.84
77871;BME280;67067;46.850;7.578;2024-02-26T02:25:12;93406.97;;;4.47;48.75
77871;BME280;67067;46.850;7.578;2024-02-26T02:26:14;93413.53;;;4.49;48.79
77871;BME280;67067;46.850;7.578;2024-02-26T02:27:17;93407.25;;;4.50;48.89
77871;BME280;67067;46.850;7.578;2024-02-26T02:28:19;93403.84;;;4.50;48.91
77871;BME280;67067;46.850;7.578;2024-02-26T02:29:21;93409.06;;;4.50;48.45
77871;BME280;67067;46.850;7.578;2024-02-26T02:30:28;93401.72;;;4.47;48.54
77871;BME280;67067;46.850;7.578;2024-02-26T02:31:31;93399.63;;;4.43;48.64
77871;BME280;67067;46.850;7.578;2024-02-26T02:32:32;93396.97;;;4.28;49.15
77871;BME280;67067;46.850;7.578;2024-02-26T02:33:34;93394.34;;;4.33;48.71
77871;BME280;67067;46.850;7.578;2024-02-26T02:34:37;93395.41;;;4.37;48.90
77871;BME280;67067;46.850;7.578;2024-02-26T02:35:39;93399.59;;;4.38;48.99
77871;BME280;67067;46.850;7.578;2024-02-26T02:36:53;93396.97;;;4.33;48.68
77871;BME280;67067;46.850;7.578;2024-02-26T02:37:57;93390.69;;;4.34;48.97
77871;BME280;67067;46.850;7.578;2024-02-26T02:38:59;93394.59;;;4.37;48.94
77871;BME280;67067;46.850;7.578;2024-02-26T02:40:00;93390.66;;;4.24;48.80
77871;BME280;67067;46.850;7.578;2024-02-26T02:41:02;93395.94;;;4.34;48.90
77871;BME280;67067;46.850;7.578;2024-02-26T02:42:04;93395.41;;;4.37;48.69
77871;BME280;67067;46.850;7.578;2024-02-26T02:43:09;93399.09;;;4.41;48.59
77871;BME280;67067;46.850;7.578;2024-02-26T02:44:11;93400.16;;;4.46;48.68
77871;BME280;67067;46.850;7.578;2024-02-26T02:45:13;93398.59;;;4.50;48.83
77871;BME280;67067;46.850;7.578;2024-02-26T02:46:17;93402.78;;;4.51;49.01
77871;BME280;67067;46.850;7.578;2024-02-26T02:47:21;93398.59;;;4.55;48.50
77871;BME280;67067;46.850;7.578;2024-02-26T02:48:23;93409.63;;;4.57;48.63
77871;BME280;67067;46.850;7.578;2024-02-26T02:49:25;93412.75;;;4.59;48.44
77871;BME280;67067;46.850;7.578;2024-02-26T02:50:27;93413.31;;;4.66;48.26
77871;BME280;67067;46.850;7.578;2024-02-26T02:51:30;93412.25;;;4.67;48.68
77871;BME280;67067;46.850;7.578;2024-02-26T02:52:32;93418.28;;;4.57;48.58
77871;BME280;67067;46.850;7.578;2024-02-26T02:53:34;93412.78;;;4.69;48.66
77871;BME280;67067;46.850;7.578;2024-02-26T02:54:38;93417.00;;;4.70;48.23
77871;BME280;67067;46.850;7.578;2024-02-26T02:55:42;93418.03;;;4.69;48.59
77871;BME280;67067;46.850;7.578;2024-02-26T02:56:43;93428.22;;;4.55;48.45
77871;BME280;67067;46.850;7.578;2024-02-26T02:57:45;93425.09;;;4.64;48.35
77871;BME280;67067;46.850;7.578;2024-02-26T02:58:47;93427.97;;;4.62;48.53
77871;BME280;67067;46.850;7.578;2024-02-26T02:59:49;93427.97;;;4.62;48.89
77871;BME280;67067;46.850;7.578;2024-02-26T03:00:51;93429.56;;;4.63;48.94
77871;BME280;67067;46.850;7.578;2024-02-26T03:01:52;93428.97;;;4.46;49.16
77871;BME280;67067;46.850;7.578;2024-02-26T03:02:54;93430.25;;;4.43;49.04
77871;BME280;67067;46.850;7.578;2024-02-26T03:03:56;93437.38;;;4.48;49.04
77871;BME280;67067;46.850;7.578;2024-02-26T03:04:58;93441.03;;;4.47;49.34
77871;BME280;67067;46.850;7.578;2024-02-26T03:06:00;93440.44;;;4.29;49.77
77871;BME280;67067;46.850;7.578;2024-02-26T03:07:02;93433.66;;;4.38;49.45
77871;BME280;67067;46.850;7.578;2024-02-26T03:08:04;93437.88;;;4.45;49.33
77871;BME280;67067;46.850;7.578;2024-02-26T03:09:05;93435.78;;;4.47;49.51
77871;BME280;67067;46.850;7.578;2024-02-26T03:10:08;93425.31;;;4.47;49.51
77871;BME280;67067;46.850;7.578;2024-02-26T03:11:14;93431.06;;;4.43;49.51
77871;BME280;67067;46.850;7.578;2024-02-26T03:12:16;93425.81;;;4.43;49.56
77871;BME280;67067;46.850;7.578;2024-02-26T03:13:19;93426.34;;;4.46;49.46
77871;BME280;67067;46.850;7.578;2024-02-26T03:14:23;93426.34;;;4.46;49.31
77871;BME280;67067;46.850;7.578;2024-02-26T03:15:26;93429.78;;;4.46;49.78
77871;BME280;67067;46.850;7.578;2024-02-26T03:16:29;93433.44;;;4.45;49.72
77871;BME280;67067;46.850;7.578;2024-02-26T03:17:33;93430.25;;;4.43;49.39
77871;BME280;67067;46.850;7.578;2024-02-26T03:18:40;93423.97;;;4.39;49.64
77871;BME280;67067;46.850;7.578;2024-02-26T03:19:44;93422.66;;;4.41;49.69
77871;BME280;67067;46.850;7.578;2024-02-26T03:20:49;93419.53;;;4.39;49.62
77871;BME280;67067;46.850;7.578;2024-02-26T03:21:51;93409.81;;;4.40;49.64
77871;BME280;67067;46.850;7.578;2024-02-26T03:22:52;93415.28;;;4.28;49.60
77871;BME280;67067;46.850;7.578;2024-02-26T03:23:54;93413.78;;;4.42;49.64
77871;BME280;67067;46.850;7.578;2024-02-26T03:24:57;93419.53;;;4.45;49.55
77871;BME280;67067;46.850;7.578;2024-02-26T03:25:59;93424.25;;;4.42;49.22
77871;BME280;67067;46.850;7.578;2024-02-26T03:27:00;93416.38;;;4.42;49.63
77871;BME280;67067;46.850;7.578;2024-02-26T03:28:02;93420.00;;;4.31;49.65
77871;BME280;67067;46.850;7.578;2024-02-26T03:29:05;93423.19;;;4.43;49.57
77871;BME280;67067;46.850;7.578;2024-02-26T03:30:10;93425.03;;;4.43;49.38
77871;BME280;67067;46.850;7.578;2024-02-26T03:31:12;93420.59;;;4.43;49.44
77871;BME280;67067;46.850;7.578;2024-02-26T03:32:14;93418.50;;;4.46;49.37
77871;BME280;67067;46.850;7.578;2024-02-26T03:33:16;93406.41;;;4.34;49.63
77871;BME280;67067;46.850;7.578;2024-02-26T03:34:18;93402.44;;;4.32;49.95
77871;BME280;67067;46.850;7.578;2024-02-26T03:35:21;93407.47;;;4.38;49.61
77871;BME280;67067;46.850;7.578;2024-02-26T03:36:25;93413.25;;;4.40;49.70
77871;BME280;67067;46.850;7.578;2024-02-26T03:37:28;93410.63;;;4.40;49.72
77871;BME280;67067;46.850;7.578;2024-02-26T03:38:30;93411.13;;;4.32;50.00
77871;BME280;67067;46.850;7.578;2024-02-26T03:39:31;93411.66;;;4.39;49.85
77871;BME280;67067;46.850;7.578;2024-02-26T03:40:33;93411.38;;;4.36;49.68
77871;BME280;67067;46.850;7.578;2024-02-26T03:41:35;93412.19;;;4.41;49.64
77871;BME280;67067;46.850;7.578;2024-02-26T03:42:37;93412.19;;;4.41;49.76
77871;BME280;67067;46.850;7.578;2024-02-26T03:43:39;93412.41;;;4.35;49.81
77871;BME280;67067;46.850;7.578;2024-02-26T03:44:43;93410.59;;;4.35;49.92
77871;BME280;67067;46.850;7.578;2024-02-26T03:45:45;93410.56;;;4.25;50.27
77871;BME280;67067;46.850;7.578;2024-02-26T03:46:46;93411.66;;;4.34;49.83
77871;BME280;67067;46.850;7.578;2024-02-26T03:47:49;93423.19;;;4.38;49.81
77871;BME280;67067;46.850;7.578;2024-02-26T03:48:53;93415.31;;;4.38;49.89
77871;BME280;67067;46.850;7.578;2024-02-26T03:49:55;93406.69;;;4.43;50.03
77871;BME280;67067;46.850;7.578;2024-02-26T03:50:57;93407.44;;;4.28;50.34
77871;BME280;67067;46.850;7.578;2024-02-26T03:51:58;93399.59;;;4.38;50.16
77871;BME280;67067;46.850;7.578;2024-02-26T03:53:00;93411.63;;;4.29;50.30
77871;BME280;67067;46.850;7.578;2024-02-26T03:54:02;93411.38;;;4.41;50.13
77871;BME280;67067;46.850;7.578;2024-02-26T03:55:04;93407.25;;;4.45;50.09
77871;BME280;67067;46.850;7.578;2024-02-26T03:56:06;93408.81;;;4.46;50.33
77871;BME280;67067;46.850;7.578;2024-02-26T03:57:08;93406.44;;;4.45;50.50
77871;BME280;67067;46.850;7.578;2024-02-26T03:58:12;93404.38;;;4.52;50.44
77871;BME280;67067;46.850;7.578;2024-02-26T03:59:14;93402.78;;;4.51;50.21
77871;BME280;67067;46.850;7.578;2024-02-26T04:00:16;93389.44;;;4.52;50.49
77871;BME280;67067;46.850;7.578;2024-02-26T04:01:18;93391.03;;;4.53;50.34
77871;BME280;67067;46.850;7.578;2024-02-26T04:02:20;93385.78;;;4.53;50.61
77871;BME280;67067;46.850;7.578;2024-02-26T04:03:22;93384.19;;;4.52;50.32
77871;BME280;67067;46.850;7.578;2024-02-26T04:04:24;93383.38;;;4.47;50.54
77871;BME280;67067;46.850;7.578;2024-02-26T04:05:25;93376.78;;;4.34;50.91
77871;BME280;67067;46.850;7.578;2024-02-26T04:06:27;93379.47;;;4.49;50.54
77871;BME280;67067;46.850;7.578;2024-02-26T04:07:31;93382.84;;;4.45;50.39
77871;BME280;67067;46.850;7.578;2024-02-26T04:08:33;93391.28;;;4.57;50.53
77871;BME280;67067;46.850;7.578;2024-02-26T04:09:34;93395.47;;;4.53;50.11
77871;BME280;67067;46.850;7.578;2024-02-26T04:10:36;93397.84;;;4.65;50.33
77871;BME280;67067;46.850;7.578;2024-02-26T04:11:40;93402.81;;;4.66;49.87
77871;BME280;67067;46.850;7.578;2024-02-26T04:12:43;93412.53;;;4.66;50.30
77871;BME280;67067;46.850;7.578;2024-02-26T04:13:45;93409.13;;;4.70;50.01
77871;BME280;67067;46.850;7.578;2024-02-26T04:14:48;93403.38;;;4.74;50.29
77871;BME280;67067;46.850;7.578;2024-02-26T04:15:50;93404.41;;;4.72;50.42
77871;BME280;67067;46.850;7.578;2024-02-26T04:16:52;93400.97;;;4.56;50.15
77871;BME280;67067;46.850;7.578;2024-02-26T04:17:58;93402.31;;;4.69;50.25
77871;BME280;67067;46.850;7.578;2024-02-26T04:19:00;93404.69;;;4.71;50.17
77871;BME280;67067;46.850;7.578;2024-02-26T04:20:02;93404.38;;;4.57;50.28
77871;BME280;67067;46.850;7.578;2024-02-26T04:21:04;93408.59;;;4.68;50.09
77871;BME280;67067;46.850;7.578;2024-02-26T04:22:10;93408.59;;;4.68;49.87
77871;BME280;67067;46.850;7.578;2024-02-26T04:23:11;93412.03;;;4.69;50.16
77871;BME280;67067;46.850;7.578;2024-02-26T04:24:15;93415.94;;;4.71;49.92
77871;BME280;67067;46.850;7.578;2024-02-26T04:25:17;93417.25;;;4.69;50.24
77871;BME280;67067;46.850;7.578;2024-02-26T04:26:19;93417.22;;;4.53;50.04
77871;BME280;67067;46.850;7.578;2024-02-26T04:27:21;93414.63;;;4.64;50.08
77871;BME280;67067;46.850;7.578;2024-02-26T04:28:23;93414.34;;;4.65;50.12
77871;BME280;67067;46.850;7.578;2024-02-26T04:29:27;93407.81;;;4.68;49.94
77871;BME280;67067;46.850;7.578;2024-02-26T04:30:29;93411.72;;;4.65;50.29
77871;BME280;67067;46.850;7.578;2024-02-26T04:31:31;93406.50;;;4.65;50.31
77871;BME280;67067;46.850;7.578;2024-02-26T04:32:34;93401.25;;;4.65;50.27
77871;BME280;67067;46.850;7.578;2024-02-26T04:33:36;93405.97;;;4.68;50.36
77871;BME280;67067;46.850;7.578;2024-02-26T04:34:38;93403.09;;;4.70;49.84
77871;BME280;67067;46.850;7.578;2024-02-26T04:35:42;93410.97;;;4.70;50.19
77871;BME280;67067;46.850;7.578;2024-02-26T04:36:44;93409.13;;;4.70;50.19
77871;BME280;67067;46.850;7.578;2024-02-26T04:37:51;93410.69;;;4.71;50.14
77871;BME280;67067;46.850;7.578;2024-02-26T04:38:55;93414.38;;;4.70;50.22
77871;BME280;67067;46.850;7.578;2024-02-26T04:39:58;93415.41;;;4.75;50.01
77871;BME280;67067;46.850;7.578;2024-02-26T04:41:00;93416.75;;;4.72;50.04
77871;BME280;67067;46.850;7.578;2024-02-26T04:42:02;93414.91;;;4.72;50.07
77871;BME280;67067;46.850;7.578;2024-02-26T04:43:05;93412.81;;;4.75;50.17
77871;BME280;67067;46.850;7.578;2024-02-26T04:44:07;93415.91;;;4.61;50.27
77871;BME280;67067;46.850;7.578;2024-02-26T04:45:10;93407.81;;;4.68;50.16
77871;BME280;67067;46.850;7.578;2024-02-26T04:46:14;93409.63;;;4.67;49.84
77871;BME280;67067;46.850;7.578;2024-02-26T04:47:17;93402.06;;;4.66;49.81
77871;BME280;67067;46.850;7.578;2024-02-26T04:48:20;93400.72;;;4.58;50.17
77871;BME280;67067;46.850;7.578;2024-02-26T04:49:22;93403.59;;;4.56;50.01
77871;BME280;67067;46.850;7.578;2024-02-26T04:50:24;93393.91;;;4.57;50.28
77871;BME280;67067;46.850;7.578;2024-02-26T04:51:26;93397.00;;;4.43;50.30
77871;BME280;67067;46.850;7.578;2024-02-26T04:52:30;93390.22;;;4.53;50.25
77871;BME280;67067;46.850;7.578;2024-02-26T04:53:32;93395.72;;;4.51;50.40
77871;BME280;67067;46.850;7.578;2024-02-26T04:54:33;93398.06;;;4.48;50.43
77871;BME280;67067;46.850;7.578;2024-02-26T04:55:35;93405.69;;;4.49;50.48
77871;BME280;67067;46.850;7.578;2024-02-26T04:56:37;93405.41;;;4.51;50.42
77871;BME280;67067;46.850;7.578;2024-02-26T04:57:38;93404.63;;;4.50;50.41
77871;BME280;67067;46.850;7.578;2024-02-26T04:58:40;93401.69;;;4.36;50.84
77871;BME280;67067;46.850;7.578;2024-02-26T04:59:42;93404.34;;;4.47;50.64
77871;BME280;67067;46.850;7.578;2024-02-26T05:02:14;93402.59;;;4.04;51.35
77871;BME280;67067;46.850;7.578;2024-02-26T05:03:18;93405.69;;;3.96;51.78
77871;BME280;67067;46.850;7.578;2024-02-26T05:04:20;93403.09;;;4.01;51.79
77871;BME280;67067;46.850;7.578;2024-02-26T05:05:24;93398.97;;;4.10;51.70
77871;BME280;67067;46.850;7.578;2024-02-26T05:06:29;93402.16;;;4.18;51.24
77871;BME280;67067;46.850;7.578;2024-02-26T05:07:31;93413.69;;;4.22;51.30
77871;BME280;67067;46.850;7.578;2024-02-26T05:08:36;93405.06;;;4.26;51.43
77871;BME280;67067;46.850;7.578;2024-02-26T05:09:40;93407.97;;;4.30;51.12
77871;BME280;67067;46.850;7.578;2024-02-26T05:10:45;93405.59;;;4.34;51.18
77871;BME280;67067;46.850;7.578;2024-02-26T05:11:47;93405.59;;;4.34;51.15
77871;BME280;67067;46.850;7.578;2024-02-26T05:12:49;93404.00;;;4.22;51.23
77871;BME280;67067;46.850;7.578;2024-02-26T05:13:50;93412.16;;;4.31;51.02
77871;BME280;67067;46.850;7.578;2024-02-26T05:14:52;93403.50;;;4.31;51.16
77871;BME280;67067;46.850;7.578;2024-02-26T05:15:54;93410.25;;;4.16;51.31
77871;BME280;67067;46.850;7.578;2024-02-26T05:16:56;93407.41;;;4.23;50.99
77871;BME280;67067;46.850;7.578;2024-02-26T05:17:58;93420.53;;;4.28;51.10
77871;BME280;67067;46.850;7.578;2024-02-26T05:19:02;93422.09;;;4.29;51.31
77871;BME280;67067;46.850;7.578;2024-02-26T05:20:06;93425.50;;;4.30;51.21
77871;BME280;67067;46.850;7.578;2024-02-26T05:21:09;93424.72;;;4.29;51.17
77871;BME280;67067;46.850;7.578;2024-02-26T05:22:11;93423.91;;;4.23;51.79
77871;BME280;67067;46.850;7.578;2024-02-26T05:23:14;93424.16;;;4.22;51.63
77871;BME280;67067;46.850;7.578;2024-02-26T05:24:16;93419.94;;;4.10;51.88
77871;BME280;67067;46.850;7.578;2024-02-26T05:25:19;93416.31;;;4.22;51.52
77871;BME280;67067;46.850;7.578;2024-02-26T05:26:23;93418.66;;;4.23;51.41
77871;BME280;67067;46.850;7.578;2024-02-26T05:27:25;93416.84;;;4.24;51.31
77871;BME280;67067;46.850;7.578;2024-02-26T05:28:27;93426.44;;;4.08;51.71
77871;BME280;67067;46.850;7.578;2024-02-26T05:29:33;93418.91;;;4.17;51.34
77871;BME280;67067;46.850;7.578;2024-02-26T05:30:35;93410.53;;;4.15;51.53
77871;BME280;67067;46.850;7.578;2024-02-26T05:31:37;93416.28;;;4.17;51.54
77871;BME280;67067;46.850;7.578;2024-02-26T05:32:39;93418.88;;;4.11;51.96
77871;BME280;67067;46.850;7.578;2024-02-26T05:33:41;93425.66;;;4.07;52.13
77871;BME280;67067;46.850;7.578;2024-02-26T05:34:43;93424.03;;;4.01;52.38
77871;BME280;67067;46.850;7.578;2024-02-26T05:35:45;93425.09;;;4.00;52.22
77871;BME280;67067;46.850;7.578;2024-02-26T05:36:46;93417.25;;;4.00;52.37
77871;BME280;67067;46.850;7.578;2024-02-26T05:37:50;93420.13;;;3.98;52.29
77871;BME280;67067;46.850;7.578;2024-02-26T05:38:52;93421.44;;;4.01;52.51
77871;BME280;67067;46.850;7.578;2024-02-26T05:39:54;93412.81;;;4.01;52.30
77871;BME280;67067;46.850;7.578;2024-02-26T05:40:58;93419.28;;;3.93;52.49
77871;BME280;67067;46.850;7.578;2024-02-26T05:42:00;93419.09;;;4.05;51.97
77871;BME280;67067;46.850;7.578;2024-02-26T05:43:02;93415.44;;;4.06;52.10
77871;BME280;67067;46.850;7.578;2024-02-26T05:44:06;93413.34;;;4.08;52.09
77871;BME280;67067;46.850;7.578;2024-02-26T05:45:11;93421.44;;;4.06;51.95
77871;BME280;67067;46.850;7.578;2024-02-26T05:46:13;93418.06;;;4.06;52.03
77871;BME280;67067;46.850;7.578;2024-02-26T05:47:14;93416.09;;;3.85;52.41
77871;BME280;67067;46.850;7.578;2024-02-26T05:48:16;93408.06;;;3.92;52.25
77871;BME280;67067;46.850;7.578;2024-02-26T05:49:18;93407.25;;;3.92;52.33